createdAt,value
2023-05-07T00:01:00.740Z,101414.94
2023-05-07T00:03:32.417Z,101426.41
2023-05-07T00:06:04.328Z,101428.16
2023-05-07T00:08:35.580Z,101427.25
2023-05-07T00:11:06.953Z,101411.38
2023-05-07T00:13:38.294Z,101427.25
2023-05-07T00:16:09.732Z,101430.78
2023-05-07T00:18:41.125Z,101421.06
2023-05-07T00:21:12.541Z,101419.31
2023-05-07T00:23:43.802Z,101416.66
2023-05-07T00:26:15.067Z,101409.56
2023-05-07T00:28:46.425Z,101413.09
2023-05-07T00:31:17.782Z,101407.81
2023-05-07T00:33:49.062Z,101406.94
2023-05-07T00:36:20.345Z,101400.75
2023-05-07T00:38:51.629Z,101400.75
2023-05-07T00:41:23.466Z,101396.34
2023-05-07T00:43:54.724Z,101371.66
2023-05-07T00:46:26.878Z,101383.13
2023-05-07T00:48:58.923Z,101388.41
2023-05-07T00:51:31.630Z,101384.88
2023-05-07T00:54:04.043Z,101384.91
2023-05-07T00:56:35.718Z,101363.72
2023-05-07T00:59:07.292Z,101384.00
2023-05-07T01:01:38.787Z,101387.53
2023-05-07T01:04:10.295Z,101385.75
2023-05-07T01:06:42.633Z,101384.00
2023-05-07T01:09:14.936Z,101381.38
2023-05-07T01:11:47.120Z,101375.19
2023-05-07T01:14:19.345Z,101357.56
2023-05-07T01:16:52.013Z,101370.81
2023-05-07T01:19:23.473Z,101375.22
2023-05-07T01:22:03.423Z,101376.97
2023-05-07T01:24:37.281Z,101372.56
2023-05-07T01:27:08.570Z,101377.88
2023-05-07T01:29:39.944Z,101384.06
2023-05-07T01:32:12.607Z,101379.66
2023-05-07T01:34:47.338Z,101390.25
2023-05-07T01:37:18.643Z,101391.13
2023-05-07T01:39:49.992Z,101392.03
2023-05-07T01:42:22.483Z,101394.69
2023-05-07T01:44:53.783Z,101399.09
2023-05-07T01:47:26.346Z,101402.63
2023-05-07T01:49:58.887Z,101395.56
2023-05-07T01:52:30.230Z,101399.09
2023-05-07T01:55:01.514Z,101412.31
2023-05-07T01:57:32.860Z,101396.44
2023-05-07T02:00:06.027Z,101408.78
2023-05-07T02:02:39.121Z,101414.97
2023-05-07T02:05:10.917Z,101410.53
2023-05-07T02:07:42.357Z,101417.59
2023-05-07T02:10:13.908Z,101421.16
2023-05-07T02:12:45.611Z,101416.72
2023-05-07T02:15:17.020Z,101425.56
2023-05-07T02:18:05.053Z,101413.19
2023-05-07T02:20:36.537Z,101401.75
2023-05-07T02:23:07.962Z,101410.56
2023-05-07T02:25:39.292Z,101406.16
2023-05-07T02:28:10.620Z,101419.41
2023-05-07T02:30:42.053Z,101375.34
2023-05-07T02:33:14.885Z,101428.22
2023-05-07T02:35:46.294Z,101436.16
2023-05-07T02:38:17.630Z,101437.94
2023-05-07T02:40:48.978Z,101434.41
2023-05-07T02:43:20.255Z,101424.69
2023-05-07T02:46:02.668Z,101428.22
2023-05-07T02:48:34.372Z,101410.56
2023-05-07T02:51:06.472Z,101438.81
2023-05-07T02:53:37.781Z,101382.34
2023-05-07T02:56:09.101Z,101444.97
2023-05-07T02:58:40.603Z,101435.28
2023-05-07T03:01:12.343Z,101429.97
2023-05-07T03:03:43.751Z,101440.59
2023-05-07T03:06:15.056Z,101431.75
2023-05-07T03:08:46.313Z,101424.69
2023-05-07T03:11:17.672Z,101429.09
2023-05-07T03:13:50.409Z,101436.16
2023-05-07T03:16:21.767Z,101420.28
2023-05-07T03:18:53.156Z,101424.69
2023-05-07T03:21:24.584Z,101436.16
2023-05-07T03:23:55.926Z,101403.50
2023-05-07T03:26:27.292Z,101403.50
2023-05-07T03:28:58.551Z,101431.72
2023-05-07T03:31:29.993Z,101429.06
2023-05-07T03:34:01.302Z,101418.50
2023-05-07T03:36:32.642Z,101435.28
2023-05-07T03:39:03.924Z,101422.03
2023-05-07T03:41:35.287Z,101420.25
2023-05-07T03:44:06.922Z,101391.16
2023-05-07T03:46:38.805Z,101427.31
2023-05-07T03:49:10.212Z,101424.66
2023-05-07T03:51:41.509Z,101431.75
2023-05-07T03:54:12.893Z,101430.84
2023-05-07T03:56:44.223Z,101430.84
2023-05-07T03:59:15.659Z,101411.44
2023-05-07T04:01:47.125Z,101418.50
2023-05-07T04:04:18.540Z,101421.13
2023-05-07T04:06:50.077Z,101422.91
2023-05-07T04:09:21.498Z,101423.78
2023-05-07T04:11:52.777Z,101424.66
2023-05-07T04:14:24.059Z,101427.31
2023-05-07T04:16:55.594Z,101433.50
2023-05-07T04:19:26.977Z,101428.19
2023-05-07T04:21:58.247Z,101420.25
2023-05-07T04:24:33.921Z,101421.09
2023-05-07T04:27:05.365Z,101429.91
2023-05-07T04:29:36.716Z,101435.22
2023-05-07T04:32:08.035Z,101434.34
2023-05-07T04:34:39.329Z,101413.16
2023-05-07T04:37:10.905Z,101430.81
2023-05-07T04:39:42.165Z,101419.34
2023-05-07T04:42:17.296Z,101428.19
2023-05-07T04:44:48.556Z,101412.28
2023-05-07T04:47:19.829Z,101394.66
2023-05-07T04:49:51.106Z,101437.88
2023-05-07T04:52:22.423Z,101430.81
2023-05-07T04:54:53.759Z,101445.81
2023-05-07T04:57:25.030Z,101449.34
2023-05-07T04:59:56.316Z,101436.09
2023-05-07T05:02:27.744Z,101446.69
2023-05-07T05:05:00.019Z,101438.75
2023-05-07T05:07:31.323Z,101431.66
2023-05-07T05:10:04.029Z,101459.03
2023-05-07T05:12:35.434Z,101409.63
2023-05-07T05:15:07.475Z,101454.63
2023-05-07T05:17:38.949Z,101460.78
2023-05-07T05:20:11.977Z,101455.47
2023-05-07T05:22:43.613Z,101468.75
2023-05-07T05:25:14.948Z,101470.50
2023-05-07T05:27:46.369Z,101476.69
2023-05-07T05:30:17.678Z,101483.75
2023-05-07T05:32:49.067Z,101486.41
2023-05-07T05:35:20.374Z,101490.84
2023-05-07T05:37:51.709Z,101492.59
2023-05-07T05:40:23.005Z,101502.31
2023-05-07T05:42:54.273Z,101493.47
2023-05-07T05:45:25.672Z,101500.53
2023-05-07T05:47:57.680Z,101463.47
2023-05-07T05:50:29.025Z,101488.16
2023-05-07T05:53:00.618Z,101497.88
2023-05-07T05:55:33.364Z,101495.25
2023-05-07T05:58:04.747Z,101503.19
2023-05-07T06:00:36.170Z,101495.22
2023-05-07T06:03:07.839Z,101458.09
2023-05-07T06:05:39.165Z,101498.72
2023-05-07T06:08:10.533Z,101500.44
2023-05-07T06:10:42.083Z,101501.28
2023-05-07T06:13:13.382Z,101504.81
2023-05-07T06:15:44.779Z,101486.28
2023-05-07T06:18:16.127Z,101505.66
2023-05-07T06:20:47.485Z,101498.56
2023-05-07T06:23:18.846Z,101504.72
2023-05-07T06:25:53.612Z,101509.13
2023-05-07T06:28:25.028Z,101510.88
2023-05-07T06:30:56.496Z,101498.50
2023-05-07T06:33:27.754Z,101515.28
2023-05-07T06:35:59.016Z,101509.97
2023-05-07T06:38:30.335Z,101509.06
2023-05-07T06:41:01.614Z,101508.13
2023-05-07T06:43:33.370Z,101502.78
2023-05-07T06:46:04.775Z,101508.94
2023-05-07T06:48:36.086Z,101505.34
2023-05-07T06:51:07.401Z,101512.44
2023-05-07T06:53:38.680Z,101504.44
2023-05-07T06:56:09.967Z,101523.91
2023-05-07T06:58:41.336Z,101518.59
2023-05-07T07:01:12.641Z,101527.38
2023-05-07T07:03:43.919Z,101513.16
2023-05-07T07:06:15.644Z,101485.78
2023-05-07T07:08:47.011Z,101508.75
2023-05-07T07:11:18.292Z,101509.56
2023-05-07T07:13:49.561Z,101500.72
2023-05-07T07:16:22.274Z,101492.59
2023-05-07T07:18:53.576Z,101516.44
2023-05-07T07:21:24.897Z,101489.78
2023-05-07T07:23:56.260Z,101504.75
2023-05-07T07:26:27.616Z,101501.13
2023-05-07T07:28:58.879Z,101513.47
2023-05-07T07:31:30.436Z,101510.81
2023-05-07T07:34:01.723Z,101509.81
2023-05-07T07:36:42.822Z,101500.97
2023-05-07T07:39:16.886Z,101508.75
2023-05-07T07:41:48.260Z,101521.03
2023-05-07T07:44:19.616Z,101496.31
2023-05-07T07:46:51.648Z,101519.28
2023-05-07T07:49:23.056Z,101514.88
2023-05-07T07:51:54.466Z,101517.56
2023-05-07T07:54:26.019Z,101528.19
2023-05-07T07:56:57.853Z,101522.81
2023-05-07T07:59:29.145Z,101514.91
2023-05-07T08:02:00.641Z,101516.56
2023-05-07T08:04:33.991Z,101529.59
2023-05-07T08:07:05.636Z,101538.34
2023-05-07T08:09:38.259Z,101536.56
2023-05-07T08:12:09.641Z,101530.47
2023-05-07T08:14:41.430Z,101535.72
2023-05-07T08:17:13.176Z,101530.38
2023-05-07T08:19:44.576Z,101534.84
2023-05-07T08:22:16.509Z,101520.56
2023-05-07T08:24:47.827Z,101540.75
2023-05-07T08:27:19.112Z,101541.47
2023-05-07T08:29:50.820Z,101544.03
2023-05-07T08:32:22.406Z,101530.63
2023-05-07T08:34:53.871Z,101542.84
2023-05-07T08:37:25.171Z,101554.13
2023-05-07T08:39:56.587Z,101552.38
2023-05-07T08:42:29.412Z,101548.78
2023-05-07T08:45:00.994Z,101528.34
2023-05-07T08:47:39.939Z,101542.84
2023-05-07T08:50:12.629Z,101509.13
2023-05-07T08:52:44.181Z,101533.50
2023-05-07T08:55:16.074Z,101529.13
2023-05-07T08:57:48.851Z,101556.31
2023-05-07T09:00:20.583Z,101542.78
2023-05-07T09:02:53.701Z,101550.00
2023-05-07T09:05:25.046Z,101556.59
2023-05-07T09:07:58.333Z,101551.28
2023-05-07T09:10:30.751Z,101568.69
2023-05-07T09:13:03.958Z,101566.03
2023-05-07T09:15:35.420Z,101568.53
2023-05-07T09:18:06.766Z,101575.50
2023-05-07T09:20:39.072Z,101560.56
2023-05-07T09:23:10.537Z,101537.69
2023-05-07T09:25:41.902Z,101562.19
2023-05-07T09:28:13.199Z,101568.75
2023-05-07T09:30:45.582Z,101566.09
2023-05-07T09:33:16.909Z,101567.78
2023-05-07T09:35:52.264Z,101547.13
2023-05-07T09:38:23.828Z,101563.28
2023-05-07T09:41:15.380Z,101559.88
2023-05-07T09:43:46.699Z,101575.81
2023-05-07T09:46:21.265Z,101576.31
2023-05-07T09:48:58.609Z,101572.56
2023-05-07T09:51:34.930Z,101563.63
2023-05-07T09:54:07.605Z,101550.72
2023-05-07T09:56:42.537Z,101551.47
2023-05-07T09:59:16.443Z,101562.56
2023-05-07T10:01:47.862Z,101570.34
2023-05-07T10:04:20.720Z,101558.84
2023-05-07T10:06:52.312Z,101558.69
2023-05-07T10:09:23.985Z,101559.50
2023-05-07T10:11:55.895Z,101562.44
2023-05-07T10:14:28.940Z,101565.13
2023-05-07T10:17:00.590Z,101561.16
2023-05-07T10:19:34.000Z,101573.00
2023-05-07T10:22:07.242Z,101564.13
2023-05-07T10:24:38.904Z,101547.38
2023-05-07T10:27:13.329Z,101555.22
2023-05-07T10:29:51.081Z,101543.50
2023-05-07T10:32:40.935Z,101568.75
2023-05-07T10:35:21.241Z,101564.09
2023-05-07T10:37:53.125Z,101569.75
2023-05-07T10:40:24.745Z,101554.94
2023-05-07T10:42:57.163Z,101567.44
2023-05-07T10:45:29.684Z,101575.72
2023-05-07T10:50:50.051Z,101575.28
2023-05-07T10:53:25.035Z,101552.63
2023-05-07T10:56:18.329Z,101577.41
2023-05-07T10:58:49.676Z,101585.75
2023-05-07T11:02:12.178Z,101566.75
2023-05-07T11:04:43.829Z,101572.81
2023-05-07T11:07:29.462Z,101575.63
2023-05-07T11:10:04.739Z,101561.94
2023-05-07T11:12:39.152Z,101569.47
2023-05-07T11:15:12.926Z,101567.25
2023-05-07T11:17:55.058Z,101541.19
2023-05-07T11:20:52.753Z,101575.09
2023-05-07T11:23:33.046Z,101568.16
2023-05-07T11:26:06.816Z,101577.31
2023-05-07T11:28:40.611Z,101574.50
2023-05-07T11:31:12.535Z,101562.13
2023-05-07T11:33:45.405Z,101567.72
2023-05-07T11:36:16.825Z,101582.91
2023-05-07T11:38:48.385Z,101581.63
2023-05-07T11:41:22.003Z,101569.72
2023-05-07T11:43:58.006Z,101559.03
2023-05-07T11:46:30.561Z,101580.97
2023-05-07T11:49:02.293Z,101567.06
2023-05-07T11:51:33.635Z,101563.63
2023-05-07T11:54:09.531Z,101556.84
2023-05-07T11:56:40.871Z,101574.94
2023-05-07T11:59:12.299Z,101575.84
2023-05-07T12:01:46.694Z,101541.22
2023-05-07T12:04:21.956Z,101566.28
2023-05-07T12:06:59.563Z,101565.69
2023-05-07T12:09:33.739Z,101555.38
2023-05-07T12:12:05.667Z,101553.28
2023-05-07T12:14:41.073Z,101543.44
2023-05-07T12:17:14.470Z,101552.50
2023-05-07T12:19:46.935Z,101570.63
2023-05-07T12:22:18.868Z,101555.88
2023-05-07T12:24:57.337Z,101566.34
2023-05-07T12:27:28.788Z,101556.03
2023-05-07T12:30:00.351Z,101559.13
2023-05-07T12:32:31.867Z,101540.13
2023-05-07T12:35:03.352Z,101531.56
2023-05-07T12:37:36.696Z,101549.03
2023-05-07T12:40:12.222Z,101548.28
2023-05-07T12:42:45.203Z,101558.53
2023-05-07T12:45:17.614Z,101550.50
2023-05-07T12:47:49.292Z,101547.34
2023-05-07T12:50:21.965Z,101545.69
2023-05-07T12:52:53.288Z,101563.53
2023-05-07T12:55:24.619Z,101528.50
2023-05-07T12:57:58.248Z,101560.81
2023-05-07T13:00:39.570Z,101554.47
2023-05-07T13:03:11.888Z,101555.09
2023-05-07T13:05:43.316Z,101561.47
2023-05-07T13:08:24.531Z,101559.69
2023-05-07T13:10:56.047Z,101547.63
2023-05-07T13:13:28.426Z,101555.09
2023-05-07T13:16:06.368Z,101547.22
2023-05-07T13:18:40.325Z,101541.63
2023-05-07T13:21:13.959Z,101546.66
2023-05-07T13:23:45.277Z,101545.34
2023-05-07T13:26:26.377Z,101553.13
2023-05-07T13:28:58.503Z,101538.25
2023-05-07T13:31:29.805Z,101548.63
2023-05-07T13:34:01.155Z,101541.00
2023-05-07T13:36:36.301Z,101538.00
2023-05-07T13:39:07.603Z,101548.63
2023-05-07T13:41:38.959Z,101548.34
2023-05-07T13:44:10.799Z,101563.66
2023-05-07T13:46:42.105Z,101555.09
2023-05-07T13:49:13.858Z,101496.97
2023-05-07T13:51:45.194Z,101537.44
2023-05-07T13:54:16.843Z,101544.91
2023-05-07T13:56:48.388Z,101541.81
2023-05-07T13:59:19.739Z,101542.59
2023-05-07T14:01:51.122Z,101542.59
2023-05-07T14:04:22.657Z,101528.66
2023-05-07T14:06:53.970Z,101534.81
2023-05-07T14:09:25.532Z,101533.25
2023-05-07T14:11:56.809Z,101527.06
2023-05-07T14:14:28.576Z,101526.41
2023-05-07T14:16:59.933Z,101542.13
2023-05-07T14:19:31.477Z,101533.06
2023-05-07T14:22:03.407Z,101533.53
2023-05-07T14:24:38.747Z,101536.16
2023-05-07T14:27:10.400Z,101512.28
2023-05-07T14:29:41.981Z,101529.66
2023-05-07T14:32:13.632Z,101518.09
2023-05-07T14:34:46.154Z,101524.63
2023-05-07T14:37:17.475Z,101522.84
2023-05-07T14:39:50.546Z,101519.66
2023-05-07T14:42:22.358Z,101521.53
2023-05-07T14:44:54.002Z,101523.28
2023-05-07T14:47:25.571Z,101517.09
2023-05-07T14:49:58.257Z,101505.75
2023-05-07T14:52:29.550Z,101524.44
2023-05-07T14:55:01.186Z,101519.13
2023-05-07T14:57:35.738Z,101517.31
2023-05-07T15:00:08.030Z,101524.81
2023-05-07T15:02:39.654Z,101504.31
2023-05-07T15:05:11.338Z,101508.72
2023-05-07T15:07:42.842Z,101527.91
2023-05-07T15:10:14.249Z,101526.91
2023-05-07T15:12:45.549Z,101520.16
2023-05-07T15:15:16.979Z,101528.00
2023-05-07T15:17:48.320Z,101527.84
2023-05-07T15:20:20.228Z,101529.94
2023-05-07T15:22:51.529Z,101524.66
2023-05-07T15:25:23.607Z,101532.75
2023-05-07T15:27:54.885Z,101533.47
2023-05-07T15:30:26.356Z,101528.06
2023-05-07T15:32:57.870Z,101525.69
2023-05-07T15:35:29.437Z,101511.16
2023-05-07T15:38:00.757Z,101520.44
2023-05-07T15:40:32.311Z,101513.41
2023-05-07T15:43:03.735Z,101550.28
2023-05-07T15:45:41.186Z,101517.03
2023-05-07T15:48:12.737Z,101510.97
2023-05-07T15:50:44.067Z,101523.81
2023-05-07T15:53:15.566Z,101515.88
2023-05-07T15:55:49.533Z,101524.47
2023-05-07T15:58:21.139Z,101534.50
2023-05-07T16:00:53.584Z,101526.97
2023-05-07T16:03:24.954Z,101529.84
2023-05-07T16:06:00.912Z,101504.84
2023-05-07T16:08:33.565Z,101513.06
2023-05-07T16:11:04.897Z,101519.97
2023-05-07T16:13:36.973Z,101510.50
2023-05-07T16:16:09.471Z,101534.25
2023-05-07T16:18:40.936Z,101529.00
2023-05-07T16:21:12.860Z,101532.63
2023-05-07T16:23:44.280Z,101521.97
2023-05-07T16:26:15.826Z,101520.28
2023-05-07T16:28:47.288Z,101522.84
2023-05-07T16:31:19.346Z,101531.19
2023-05-07T16:33:50.864Z,101525.16
2023-05-07T16:36:22.870Z,101529.81
2023-05-07T16:38:54.297Z,101528.28
2023-05-07T16:41:26.057Z,101528.56
2023-05-07T16:43:58.640Z,101512.66
2023-05-07T16:46:30.242Z,101520.03
2023-05-07T16:49:01.671Z,101516.16
2023-05-07T16:51:36.093Z,101519.56
2023-05-07T16:54:07.885Z,101526.63
2023-05-07T16:56:39.506Z,101507.34
2023-05-07T16:59:10.961Z,101507.56
2023-05-07T17:01:42.774Z,101511.47
2023-05-07T17:04:14.424Z,101515.34
2023-05-07T17:06:46.028Z,101513.91
2023-05-07T17:09:17.330Z,101509.00
2023-05-07T17:11:48.735Z,101497.16
2023-05-07T17:14:20.080Z,101492.91
2023-05-07T17:16:51.487Z,101515.00
2023-05-07T17:19:23.129Z,101502.03
2023-05-07T17:21:56.627Z,101511.78
2023-05-07T17:24:27.953Z,101520.84
2023-05-07T17:26:59.288Z,101524.78
2023-05-07T17:29:30.904Z,101532.03
2023-05-07T17:32:02.303Z,101525.00
2023-05-07T17:34:33.747Z,101523.34
2023-05-07T17:37:05.196Z,101500.69
2023-05-07T17:39:36.585Z,101521.81
2023-05-07T17:42:07.909Z,101533.72
2023-05-07T17:44:41.947Z,101532.28
2023-05-07T17:47:14.327Z,101537.81
2023-05-07T17:49:45.684Z,101529.13
2023-05-07T17:52:16.985Z,101531.97
2023-05-07T17:54:48.259Z,101524.31
2023-05-07T17:57:21.191Z,101539.41
2023-05-07T17:59:52.549Z,101536.06
2023-05-07T18:02:24.149Z,101535.34
2023-05-07T18:04:55.559Z,101543.50
2023-05-07T18:07:26.920Z,101543.66
2023-05-07T18:09:58.201Z,101551.84
2023-05-07T18:12:29.599Z,101545.97
2023-05-07T18:15:01.020Z,101555.75
2023-05-07T18:17:32.460Z,101556.03
2023-05-07T18:20:09.026Z,101547.34
2023-05-07T18:22:40.502Z,101532.59
2023-05-07T18:25:12.154Z,101568.13
2023-05-07T18:27:43.435Z,101569.22
2023-05-07T18:30:15.003Z,101572.06
2023-05-07T18:32:46.437Z,101573.19
2023-05-07T18:35:17.850Z,101582.31
2023-05-07T18:37:49.224Z,101557.84
2023-05-07T18:40:21.842Z,101565.91
2023-05-07T18:42:54.558Z,101585.56
2023-05-07T18:45:27.188Z,101575.16
2023-05-07T18:48:02.053Z,101557.72
2023-05-07T18:50:37.970Z,101558.84
2023-05-07T18:53:11.809Z,101582.72
2023-05-07T18:55:46.246Z,101577.63
2023-05-07T18:58:19.739Z,101577.97
2023-05-07T19:00:51.408Z,101597.53
2023-05-07T19:03:23.805Z,101573.84
2023-05-07T19:05:55.800Z,101592.59
2023-05-07T19:08:27.086Z,101607.72
2023-05-07T19:10:58.737Z,101613.19
2023-05-07T19:13:30.277Z,101617.78
2023-05-07T19:16:01.808Z,101594.16
2023-05-07T19:18:33.163Z,101626.19
2023-05-07T19:21:04.448Z,101625.44
2023-05-07T19:23:41.680Z,101619.38
2023-05-07T19:26:13.086Z,101620.38
2023-05-07T19:28:45.512Z,101612.59
2023-05-07T19:31:21.535Z,101610.06
2023-05-07T19:33:54.338Z,101626.91
2023-05-07T19:36:26.241Z,101631.41
2023-05-07T19:38:57.501Z,101627.06
2023-05-07T19:41:29.010Z,101612.13
2023-05-07T19:44:00.369Z,101632.44
2023-05-07T19:46:31.855Z,101630.72
2023-05-07T19:49:03.249Z,101639.66
2023-05-07T19:51:34.511Z,101640.63
2023-05-07T19:54:05.934Z,101651.38
2023-05-07T19:56:37.498Z,101635.56
2023-05-07T19:59:08.784Z,101655.06
2023-05-07T20:01:40.263Z,101654.25
2023-05-07T20:04:11.657Z,101663.19
2023-05-07T20:06:42.918Z,101653.50
2023-05-07T20:09:14.270Z,101657.94
2023-05-07T20:11:45.560Z,101661.53
2023-05-07T20:14:16.828Z,101646.56
2023-05-07T20:16:48.176Z,101656.28
2023-05-07T20:19:19.649Z,101653.63
2023-05-07T20:21:51.318Z,101654.53
2023-05-07T20:24:23.389Z,101647.47
2023-05-07T20:26:54.727Z,101651.00
2023-05-07T20:29:26.345Z,101658.06
2023-05-07T20:31:57.690Z,101654.53
2023-05-07T20:34:28.993Z,101632.47
2023-05-07T20:37:00.350Z,101663.44
2023-05-07T20:39:31.773Z,101661.69
2023-05-07T20:42:03.207Z,101658.13
2023-05-07T20:44:37.992Z,101651.94
2023-05-07T20:47:09.543Z,101666.16
2023-05-07T20:49:41.171Z,101665.28
2023-05-07T20:52:12.433Z,101666.22
2023-05-07T20:54:44.385Z,101672.44
2023-05-07T20:57:16.521Z,101671.59
2023-05-07T20:59:47.869Z,101666.34
2023-05-07T21:02:19.288Z,101666.38
2023-05-07T21:04:52.201Z,101671.69
2023-05-07T21:07:23.496Z,101669.03
2023-05-07T21:09:54.930Z,101654.94
2023-05-07T21:12:26.210Z,101678.81
2023-05-07T21:14:57.544Z,101673.53
2023-05-07T21:17:31.554Z,101674.47
2023-05-07T21:20:03.827Z,101685.09
2023-05-07T21:22:35.370Z,101670.94
2023-05-07T21:25:06.987Z,101685.09
2023-05-07T21:27:38.347Z,101687.75
2023-05-07T21:30:10.735Z,101663.03
2023-05-07T21:32:42.383Z,101692.19
2023-05-07T21:35:15.211Z,101692.22
2023-05-07T21:37:46.586Z,101690.47
2023-05-07T21:40:18.086Z,101668.41
2023-05-07T21:42:49.383Z,101696.72
2023-05-07T21:45:20.852Z,101702.03
2023-05-07T21:47:52.264Z,101705.59
2023-05-07T21:50:23.861Z,101702.94
2023-05-07T21:52:55.233Z,101712.69
2023-05-07T21:55:26.506Z,101710.03
2023-05-07T21:58:04.918Z,101719.78
2023-05-07T22:00:37.166Z,101688.88
2023-05-07T22:03:08.531Z,101702.16
2023-05-07T22:05:39.896Z,101720.69
2023-05-07T22:08:11.432Z,101717.13
2023-05-07T22:10:43.213Z,101715.41
2023-05-07T22:13:14.539Z,101714.53
2023-05-07T22:15:56.586Z,101716.31
2023-05-07T22:18:29.007Z,101734.00
2023-05-07T22:21:00.405Z,101740.13
2023-05-07T22:23:31.747Z,101735.72
2023-05-07T22:26:09.969Z,101734.81
2023-05-07T22:28:41.334Z,101733.94
2023-05-07T22:31:12.782Z,101735.72
2023-05-07T22:33:44.223Z,101730.41
2023-05-07T22:36:15.626Z,101729.53
2023-05-07T22:38:46.927Z,101736.63
2023-05-07T22:41:18.388Z,101730.44
2023-05-07T22:43:49.647Z,101720.72
2023-05-07T22:46:21.068Z,101725.16
2023-05-07T22:48:52.422Z,101727.78
2023-05-07T22:51:23.772Z,101737.53
2023-05-07T22:53:55.083Z,101718.03
2023-05-07T22:56:26.399Z,101739.28
2023-05-07T22:58:57.723Z,101695.94
2023-05-07T23:01:29.153Z,101728.69
2023-05-07T23:04:00.498Z,101732.19
2023-05-07T23:06:31.923Z,101732.19
2023-05-07T23:09:04.058Z,101711.84
2023-05-07T23:11:36.471Z,101719.78
2023-05-07T23:14:08.293Z,101733.94
2023-05-07T23:16:39.697Z,101714.47
2023-05-07T23:19:11.565Z,101730.41
2023-05-07T23:21:42.862Z,101734.81
2023-05-07T23:24:14.178Z,101730.41
2023-05-07T23:26:45.455Z,101738.34
2023-05-07T23:29:16.815Z,101743.66
2023-05-07T23:31:48.080Z,101735.69
2023-05-07T23:34:23.732Z,101733.03
2023-05-07T23:36:55.474Z,101734.81
2023-05-07T23:39:26.742Z,101741.88
2023-05-07T23:41:58.153Z,101733.03
2023-05-07T23:44:29.503Z,101741.00
2023-05-07T23:47:00.815Z,101725.97
2023-05-07T23:49:32.120Z,101726.84
2023-05-07T23:52:03.420Z,101729.50
2023-05-07T23:54:34.793Z,101708.25
2023-05-07T23:57:06.166Z,101732.16
2023-05-07T23:59:37.425Z,101692.34
